Time;durP1;ratioP1;P1;durP2;ratioP2;P2;SDS_P1;SDS_P2;PMS_P1;PMS_P2;Temp;Humidity;BMP_temperature;BMP_pressure;BME280_temperature;BME280_humidity;BME280_pressure;Samples;Min_cycle;Max_cycle;Signal;HPM_P1;HPM_P2
2022/01/29 00:01:51;;;;;;;6.72;3.80;;;;;;;0.34;83.38;98018.55;1716575;83;21076;-78
2022/01/29 00:04:17;;;;;;;6.62;3.70;;;;;;;0.34;83.87;98024.22;1717606;83;21052;-77
2022/01/29 00:06:45;;;;;;;4.47;2.98;;;;;;;0.34;83.51;98017.25;1718208;83;20985;-78
2022/01/29 00:09:14;;;;;;;7.42;3.17;;;;;;;0.33;83.02;98016.81;1717860;83;21092;-78
2022/01/29 00:11:44;;;;;;;4.70;2.92;;;;;;;0.32;82.78;98026.80;1683290;84;21020;-77
2022/01/29 00:14:11;;;;;;;4.42;2.77;;;;;;;0.30;82.41;98038.06;1683502;85;21052;-77
2022/01/29 00:16:40;;;;;;;6.28;2.42;;;;;;;0.31;81.98;98031.98;1717959;83;21016;-77
2022/01/29 00:19:07;;;;;;;4.62;2.80;;;;;;;0.25;81.32;98041.48;1718256;83;21065;-77
2022/01/29 00:21:34;;;;;;;5.80;3.17;;;;;;;0.28;81.93;98051.08;1718068;82;21077;-77
2022/01/29 00:24:00;;;;;;;3.83;2.45;;;;;;;0.25;82.11;98051.06;1682812;83;21528;-77
2022/01/29 00:26:28;;;;;;;3.50;2.62;;;;;;;0.24;81.94;98064.92;1717897;83;20995;-77
2022/01/29 00:28:56;;;;;;;5.53;3.02;;;;;;;0.20;81.65;98058.80;1718016;83;21002;-78
2022/01/29 00:31:23;;;;;;;4.97;3.33;;;;;;;0.18;82.02;98069.65;1704491;83;21018;-78
2022/01/29 00:33:49;;;;;;;4.25;3.10;;;;;;;0.13;81.08;98069.56;1689262;84;21018;-78
2022/01/29 00:36:16;;;;;;;4.83;2.90;;;;;;;0.10;81.72;98064.75;1689438;85;21074;-77
2022/01/29 00:38:42;;;;;;;4.53;2.70;;;;;;;0.05;81.73;98065.12;1689227;84;20983;-77
2022/01/29 00:41:08;;;;;;;4.78;3.55;;;;;;;-0.01;81.20;98070.69;1689706;84;21032;-77
2022/01/29 00:43:35;;;;;;;6.42;3.20;;;;;;;-0.04;80.97;98071.94;1689230;85;21432;-77
2022/01/29 00:46:02;;;;;;;6.05;2.95;;;;;;;-0.11;80.61;98080.54;1705899;83;20993;-78
2022/01/29 00:48:28;;;;;;;6.08;3.25;;;;;;;-0.14;81.09;98083.09;1719491;83;21021;-78
2022/01/29 00:50:57;;;;;;;4.50;2.87;;;;;;;-0.19;80.85;98083.45;1721443;83;20989;-78
2022/01/29 00:53:23;;;;;;;4.53;2.50;;;;;;;-0.20;80.83;98085.61;1731974;83;21090;-78
2022/01/29 00:55:49;;;;;;;5.72;2.98;;;;;;;-0.24;80.41;98086.00;1732496;82;21013;-77
2022/01/29 00:58:16;;;;;;;6.40;2.95;;;;;;;-0.24;81.04;98090.32;1732381;83;21481;-77
2022/01/29 01:00:44;;;;;;;5.80;2.72;;;;;;;-0.24;81.09;98096.42;1732475;83;21000;-77
2022/01/29 01:03:10;;;;;;;5.17;2.85;;;;;;;-0.26;81.00;98095.50;1732419;82;20997;-77
2022/01/29 01:05:37;;;;;;;5.92;2.80;;;;;;;-0.26;81.28;98086.38;1732536;83;21031;-77
2022/01/29 01:08:04;;;;;;;5.75;2.60;;;;;;;-0.24;80.27;98090.32;1732461;82;20988;-77
2022/01/29 01:10:31;;;;;;;3.72;2.30;;;;;;;-0.24;79.69;98079.91;1732462;82;20984;-78
2022/01/29 01:12:57;;;;;;;4.45;2.60;;;;;;;-0.22;78.63;98065.16;1732337;83;21437;-78
2022/01/29 01:15:23;;;;;;;3.87;2.45;;;;;;;-0.18;79.69;98079.57;1732447;83;20988;-78
2022/01/29 01:17:50;;;;;;;5.70;2.70;;;;;;;-0.16;79.58;98066.58;1732413;82;21028;-78
2022/01/29 01:20:17;;;;;;;3.05;1.85;;;;;;;-0.14;79.28;98070.95;1731314;82;21008;-78
2022/01/29 01:22:43;;;;;;;5.08;2.47;;;;;;;-0.17;77.37;98073.95;1697495;84;21015;-78
2022/01/29 01:25:10;;;;;;;4.47;2.22;;;;;;;-0.12;77.91;98081.81;1697590;84;21023;-77
2022/01/29 01:27:37;;;;;;;3.58;2.47;;;;;;;-0.11;78.04;98077.94;1697405;84;21039;-78
2022/01/29 01:30:06;;;;;;;3.30;2.10;;;;;;;-0.12;78.66;98085.31;1697565;84;20972;-77
2022/01/29 01:32:32;;;;;;;4.90;2.27;;;;;;;-0.15;77.26;98091.35;1697512;84;21064;-77
2022/01/29 01:35:09;;;;;;;4.37;2.25;;;;;;;-0.16;77.67;98094.78;1697495;84;21448;-77
2022/01/29 01:37:54;;;;;;;2.85;2.12;;;;;;;-0.20;77.91;98094.28;1695842;84;21028;-78
2022/01/29 01:39:56;;;;;;;3.25;2.20;;;;;;;-0.24;78.39;98092.92;1688798;84;21567;-77
2022/01/29 01:42:23;;;;;;;3.58;2.33;;;;;;;-0.30;78.75;98099.80;1697553;84;20964;-78
2022/01/29 01:44:51;;;;;;;3.98;2.08;;;;;;;-0.35;78.86;98100.56;1697572;84;21044;-78
2022/01/29 01:47:18;;;;;;;3.50;2.35;;;;;;;-0.43;79.08;98113.05;1702946;83;22176;-78
2022/01/29 01:49:46;;;;;;;5.28;2.80;;;;;;;-0.51;79.38;98111.18;1701763;84;21036;-77
2022/01/29 01:52:18;;;;;;;5.78;3.67;;;;;;;-0.63;79.58;98124.41;1693987;84;21061;-77
2022/01/29 01:54:45;;;;;;;4.22;2.50;;;;;;;-0.70;79.88;98116.92;1689083;85;21452;-78
2022/01/29 01:57:17;;;;;;;3.55;2.15;;;;;;;-0.74;80.29;98115.55;1689377;84;21041;-78
2022/01/29 01:59:44;;;;;;;5.70;2.95;;;;;;;-0.81;80.54;98113.27;1679521;85;21089;-78
2022/01/29 02:02:10;;;;;;;5.30;2.52;;;;;;;-0.82;80.54;98111.52;1689205;84;21028;-78
2022/01/29 02:04:38;;;;;;;3.42;1.95;;;;;;;-0.79;80.66;98111.55;1689355;84;21100;-78
2022/01/29 02:07:05;;;;;;;4.50;2.33;;;;;;;-0.74;80.78;98112.95;1689267;85;21017;-77
2022/01/29 02:09:32;;;;;;;4.15;2.37;;;;;;;-0.72;80.72;98109.52;1689264;84;21577;-77
2022/01/29 02:12:03;;;;;;;4.05;2.40;;;;;;;-0.73;80.77;98116.89;1689206;84;20993;-77
2022/01/29 02:14:32;;;;;;;6.15;2.58;;;;;;;-0.77;81.08;98116.38;1689180;85;21451;-77
2022/01/29 02:17:01;;;;;;;3.50;2.10;;;;;;;-0.77;81.02;98109.88;1689219;84;21101;-77
2022/01/29 02:19:27;;;;;;;5.70;2.60;;;;;;;-0.81;81.01;98108.95;1689270;85;21040;-77
2022/01/29 02:21:56;;;;;;;4.37;2.45;;;;;;;-0.83;81.19;98100.66;1689312;85;21004;-77
2022/01/29 02:24:23;;;;;;;3.90;2.17;;;;;;;-0.85;81.15;98096.73;1689299;84;21056;-78
2022/01/29 02:26:49;;;;;;;4.22;2.22;;;;;;;-0.87;81.23;98104.91;1689367;84;21000;-78
2022/01/29 02:29:16;;;;;;;3.85;2.40;;;;;;;-0.89;81.11;98098.81;1707578;83;21037;-77
2022/01/29 02:31:56;;;;;;;3.30;2.05;;;;;;;-0.90;81.07;98094.87;1684295;85;21059;-78
2022/01/29 02:34:24;;;;;;;4.25;2.40;;;;;;;-0.93;81.20;98100.91;1657401;86;21008;-78
2022/01/29 02:36:52;;;;;;;4.28;2.35;;;;;;;-0.95;81.21;98098.27;1657225;86;21092;-77
2022/01/29 02:39:20;;;;;;;4.55;2.20;;;;;;;-0.98;81.24;98094.75;1657320;86;21072;-77
2022/01/29 02:41:47;;;;;;;3.87;2.35;;;;;;;-1.01;81.30;98099.47;1657316;86;21056;-77
2022/01/29 02:44:21;;;;;;;3.37;2.27;;;;;;;-1.03;81.35;98097.28;1657216;86;21028;-77
2022/01/29 02:49:23;;;;;;;4.15;2.30;;;;;;;-1.03;81.32;98114.59;1684958;85;20992;-78
2022/01/29 02:51:55;;;;;;;4.25;2.40;;;;;;;-1.05;81.40;98096.35;1686805;85;21056;-78
2022/01/29 02:54:24;;;;;;;4.70;2.62;;;;;;;-1.11;81.40;98113.16;1692307;85;21035;-78
2022/01/29 02:56:52;;;;;;;5.95;2.77;;;;;;;-1.10;81.40;98121.41;1692219;85;21441;-78
2022/01/29 02:59:18;;;;;;;4.80;2.60;;;;;;;-1.15;81.55;98122.62;1692228;85;21410;-78
2022/01/29 03:01:46;;;;;;;5.53;3.22;;;;;;;-1.15;81.73;98123.04;1692538;85;21012;-79
2022/01/29 03:04:12;;;;;;;3.75;2.67;;;;;;;-1.11;81.79;98128.34;1692422;85;21091;-78
2022/01/29 03:06:39;;;;;;;3.98;2.62;;;;;;;-1.10;81.83;98127.91;1692569;85;21057;-78
2022/01/29 03:09:06;;;;;;;5.00;3.27;;;;;;;-1.10;81.96;98151.31;1692529;85;21020;-78
2022/01/29 03:11:33;;;;;;;3.90;2.55;;;;;;;-1.08;82.00;98145.73;1692540;85;21011;-78
2022/01/29 03:14:00;;;;;;;6.10;2.87;;;;;;;-1.05;82.08;98148.82;1692390;85;20996;-78
2022/01/29 03:16:26;;;;;;;4.00;2.50;;;;;;;-1.05;82.12;98154.88;1692639;85;21072;-78
2022/01/29 03:18:53;;;;;;;3.95;2.58;;;;;;;-1.03;81.93;98166.63;1692370;85;21406;-78
2022/01/29 03:21:19;;;;;;;4.97;2.77;;;;;;;-0.99;82.07;98171.91;1692427;85;20969;-78
2022/01/29 03:23:46;;;;;;;4.20;3.02;;;;;;;-0.92;81.97;98167.70;1692491;85;21068;-78
2022/01/29 03:26:12;;;;;;;4.67;2.70;;;;;;;-0.86;81.77;98170.44;1664948;85;21484;-78
2022/01/29 03:28:39;;;;;;;6.15;3.05;;;;;;;-0.80;81.09;98181.37;1692429;85;21051;-78
2022/01/29 03:31:05;;;;;;;6.47;3.40;;;;;;;-0.74;80.80;98180.20;1692510;85;20995;-79
2022/01/29 03:33:32;;;;;;;5.03;2.70;;;;;;;-0.64;80.49;98177.75;1692314;85;21043;-79
2022/01/29 03:35:59;;;;;;;5.92;3.50;;;;;;;-0.63;80.13;98189.49;1692466;85;21040;-79
2022/01/29 03:38:26;;;;;;;2.77;2.22;;;;;;;-0.60;79.66;98194.77;1692386;85;20992;-79
2022/01/29 03:40:53;;;;;;;3.92;2.37;;;;;;;-0.56;79.59;98182.67;1692258;85;21024;-79
2022/01/29 03:43:33;;;;;;;5.15;2.60;;;;;;;-0.56;78.91;98193.09;1692466;85;21020;-79
2022/01/29 03:45:54;;;;;;;4.92;2.80;;;;;;;-0.55;78.77;98194.84;1719263;83;20981;-80
2022/01/29 03:48:20;;;;;;;3.80;2.25;;;;;;;-0.57;78.19;98194.84;1727410;82;21414;-79
2022/01/29 03:50:47;;;;;;;4.12;2.37;;;;;;;-0.61;78.58;98201.24;1727478;82;21058;-78
2022/01/29 03:53:13;;;;;;;4.15;2.20;;;;;;;-0.61;78.70;98207.34;1731100;83;21034;-78
2022/01/29 03:55:39;;;;;;;5.17;2.60;;;;;;;-0.66;77.59;98199.88;1732519;82;21402;-80
2022/01/29 03:58:06;;;;;;;4.08;2.08;;;;;;;-0.67;78.43;98204.59;1732517;82;21375;-80
2022/01/29 04:00:34;;;;;;;3.55;2.30;;;;;;;-0.71;77.80;98204.97;1732576;82;21004;-80
2022/01/29 04:03:00;;;;;;;3.85;2.15;;;;;;;-0.73;77.71;98209.70;1731995;82;21064;-78
2022/01/29 04:05:27;;;;;;;3.35;2.12;;;;;;;-0.81;77.99;98209.55;1732568;83;21040;-78
2022/01/29 04:07:53;;;;;;;2.87;1.95;;;;;;;-0.86;77.65;98215.98;1732506;82;20968;-78
2022/01/29 04:10:22;;;;;;;5.05;2.37;;;;;;;-0.90;78.21;98218.06;1732621;83;21579;-79
2022/01/29 04:12:51;;;;;;;4.03;2.22;;;;;;;-0.95;78.51;98218.39;1732471;82;20992;-79
2022/01/29 04:15:17;;;;;;;4.05;2.15;;;;;;;-0.97;78.67;98222.27;1732393;82;21552;-79
2022/01/29 04:17:44;;;;;;;3.90;2.35;;;;;;;-1.02;78.37;98221.30;1732651;82;21029;-79
2022/01/29 04:20:11;;;;;;;3.70;2.05;;;;;;;-1.07;78.89;98229.42;1732528;82;21009;-79
2022/01/29 04:22:38;;;;;;;3.40;2.50;;;;;;;-1.16;77.59;98233.98;1732560;82;21004;-78
2022/01/29 04:25:06;;;;;;;4.70;2.22;;;;;;;-1.17;78.51;98232.23;1732499;82;20969;-78
2022/01/29 04:27:37;;;;;;;5.25;1.98;;;;;;;-1.23;78.26;98233.42;1732688;82;21425;-78
2022/01/29 04:30:07;;;;;;;3.08;1.90;;;;;;;-1.23;78.55;98230.82;1732040;82;21044;-77
2022/01/29 04:35:06;;;;;;;4.12;2.42;;;;;;;-1.30;78.87;98232.84;1732522;82;21020;-76
2022/01/29 04:37:32;;;;;;;4.33;2.20;;;;;;;-1.34;78.87;98242.28;1732589;82;21004;-77
2022/01/29 04:39:58;;;;;;;2.87;2.17;;;;;;;-1.40;78.36;98241.74;1732493;82;20977;-77
2022/01/29 04:42:26;;;;;;;2.90;1.77;;;;;;;-1.39;78.75;98238.70;1732546;82;20953;-77
2022/01/29 04:44:52;;;;;;;3.45;2.08;;;;;;;-1.42;78.72;98236.05;1694389;84;21035;-77
2022/01/29 04:47:19;;;;;;;5.28;2.47;;;;;;;-1.47;78.56;98230.73;1723773;83;20988;-77
2022/01/29 04:49:45;;;;;;;2.92;1.92;;;;;;;-1.47;78.34;98235.52;1732449;82;21406;-76
2022/01/29 04:52:11;;;;;;;4.72;1.92;;;;;;;-1.51;78.43;98238.00;1730111;83;21012;-76
2022/01/29 04:54:37;;;;;;;4.75;2.30;;;;;;;-1.53;78.34;98234.50;1719779;82;21009;-77
2022/01/29 04:57:04;;;;;;;4.92;2.58;;;;;;;-1.58;78.31;98238.28;1719555;83;20981;-78
2022/01/29 04:59:31;;;;;;;2.95;1.87;;;;;;;-1.60;78.30;98255.58;1719678;82;20970;-77
2022/01/29 05:01:57;;;;;;;5.65;2.50;;;;;;;-1.62;78.38;98260.73;1719673;83;21051;-77
2022/01/29 05:04:23;;;;;;;3.30;2.22;;;;;;;-1.65;78.47;98269.77;1719661;83;21008;-77
2022/01/29 05:06:50;;;;;;;5.70;3.05;;;;;;;-1.66;78.62;98272.33;1719772;82;21060;-76
2022/01/29 05:09:16;;;;;;;3.83;2.10;;;;;;;-1.69;78.82;98283.94;1719634;83;21021;-76
2022/01/29 05:11:46;;;;;;;3.33;2.00;;;;;;;-1.71;78.95;98285.64;1719676;82;21013;-77
2022/01/29 05:14:19;;;;;;;3.80;2.25;;;;;;;-1.67;79.11;98288.77;1719559;83;21384;-77
2022/01/29 05:27:24;;;;;;;5.62;2.65;;;;;;;-1.44;78.92;98304.91;1719823;82;20099;-76
2022/01/29 05:29:50;;;;;;;4.53;2.55;;;;;;;-1.41;78.52;98302.80;1719727;82;21013;-76
2022/01/29 05:32:16;;;;;;;5.53;2.47;;;;;;;-1.40;78.42;98304.14;1719605;82;21575;-77
2022/01/29 05:34:43;;;;;;;4.22;2.60;;;;;;;-1.35;78.45;98288.22;1716448;82;21005;-76
2022/01/29 05:37:09;;;;;;;6.00;2.33;;;;;;;-1.35;78.39;98298.63;1685001;85;21024;-76
2022/01/29 05:39:37;;;;;;;5.35;2.70;;;;;;;-1.35;78.26;98296.02;1684967;85;21081;-76
2022/01/29 05:42:04;;;;;;;3.35;2.25;;;;;;;-1.37;77.91;98302.89;1689847;83;20962;-76
2022/01/29 05:44:30;;;;;;;3.30;2.27;;;;;;;-1.41;78.03;98299.76;1718063;82;21056;-77
2022/01/29 05:46:57;;;;;;;5.75;2.40;;;;;;;-1.46;78.18;98314.38;1716491;82;21439;-76
2022/01/29 05:49:23;;;;;;;3.95;2.40;;;;;;;-1.49;78.10;98316.48;1717616;83;21388;-76
2022/01/29 05:51:50;;;;;;;4.85;2.47;;;;;;;-1.54;78.18;98317.23;1718212;83;20959;-77
2022/01/29 05:54:17;;;;;;;5.15;2.80;;;;;;;-1.60;78.39;98320.14;1725277;83;21116;-76
2022/01/29 05:56:43;;;;;;;4.03;2.20;;;;;;;-1.58;78.40;98320.59;1725882;83;21041;-76
2022/01/29 05:59:10;;;;;;;4.20;2.65;;;;;;;-1.63;78.27;98320.05;1725664;83;21022;-76
2022/01/29 06:01:37;;;;;;;4.87;2.85;;;;;;;-1.64;78.40;98322.20;1725447;83;21466;-76
2022/01/29 06:04:05;;;;;;;3.95;2.20;;;;;;;-1.60;78.19;98323.15;1725887;83;20994;-76
2022/01/29 06:06:33;;;;;;;4.72;2.42;;;;;;;-1.62;78.00;98339.14;1725687;83;21026;-76
2022/01/29 06:09:04;;;;;;;5.40;2.72;;;;;;;-1.57;77.73;98349.23;1725812;83;21472;-77
2022/01/29 06:11:28;;;;;;;6.50;2.60;;;;;;;-1.53;77.99;98345.84;1725117;83;21039;-76
2022/01/29 06:13:54;;;;;;;5.15;2.75;;;;;;;-1.50;78.35;98360.22;1725611;83;21022;-77
2022/01/29 06:16:21;;;;;;;4.45;2.92;;;;;;;-1.46;77.93;98353.37;1725716;83;21026;-76
2022/01/29 06:18:47;;;;;;;4.20;2.87;;;;;;;-1.43;78.26;98356.05;1725787;83;21041;-76
2022/01/29 06:21:14;;;;;;;4.78;2.50;;;;;;;-1.37;78.50;98363.99;1725511;83;21431;-76
2022/01/29 06:23:42;;;;;;;4.47;2.70;;;;;;;-1.28;78.61;98364.66;1725628;83;21435;-76
2022/01/29 06:26:11;;;;;;;5.60;2.60;;;;;;;-1.22;77.91;98371.70;1725710;83;21476;-77
2022/01/29 06:28:39;;;;;;;5.08;2.60;;;;;;;-1.16;77.93;98370.54;1725577;83;21514;-77
2022/01/29 06:31:06;;;;;;;6.17;3.30;;;;;;;-1.10;78.04;98374.61;1725770;83;21066;-77
2022/01/29 06:33:33;;;;;;;5.55;2.08;;;;;;;-1.07;78.30;98370.76;1725755;83;21053;-78
2022/01/29 06:36:00;;;;;;;7.47;2.85;;;;;;;-1.07;76.53;98382.91;1725652;83;21134;-77
2022/01/29 06:38:27;;;;;;;5.15;2.90;;;;;;;-1.01;76.99;98370.03;1725995;83;20978;-79
2022/01/29 06:40:54;;;;;;;5.53;2.80;;;;;;;-1.02;76.01;98377.39;1725948;83;21022;-78
2022/01/29 06:43:20;;;;;;;4.40;2.40;;;;;;;-0.99;76.65;98377.87;1725888;83;21002;-78
2022/01/29 06:45:48;;;;;;;3.37;2.75;;;;;;;-1.05;75.49;98386.85;1724422;83;21036;-78
2022/01/29 06:48:15;;;;;;;3.58;2.20;;;;;;;-0.98;76.25;98375.72;1727466;82;21068;-78
2022/01/29 06:50:41;;;;;;;3.33;2.20;;;;;;;-0.99;76.41;98369.63;1727331;82;21414;-77
2022/01/29 06:53:09;;;;;;;5.08;2.47;;;;;;;-1.06;75.09;98380.75;1729183;82;21056;-78
2022/01/29 06:55:36;;;;;;;4.03;2.33;;;;;;;-1.05;75.62;98392.91;1732411;82;21426;-76
2022/01/29 06:58:03;;;;;;;4.55;2.35;;;;;;;-1.15;75.26;98385.73;1732665;82;20996;-78
2022/01/29 07:00:29;;;;;;;6.47;2.87;;;;;;;-1.13;75.82;98381.47;1732755;82;20989;-77
2022/01/29 07:02:56;;;;;;;4.75;2.65;;;;;;;-1.15;76.01;98375.33;1732592;82;20953;-77
2022/01/29 07:05:22;;;;;;;5.35;2.83;;;;;;;-1.14;76.21;98379.69;1732743;82;21040;-77
2022/01/29 07:07:49;;;;;;;4.30;2.62;;;;;;;-1.15;76.50;98377.53;1732675;83;20996;-77
2022/01/29 07:10:16;;;;;;;7.37;2.80;;;;;;;-1.12;76.34;98384.08;1732595;82;20989;-76
2022/01/29 07:12:43;;;;;;;4.58;2.70;;;;;;;-1.03;76.66;98380.84;1732622;82;21051;-78
2022/01/29 07:15:11;;;;;;;4.20;2.90;;;;;;;-0.97;76.29;98384.87;1732761;82;21021;-76
2022/01/29 07:17:38;;;;;;;15.85;8.10;;;;;;;-0.85;76.55;98388.18;1732538;82;21019;-76
2022/01/29 07:20:07;;;;;;;9.58;4.05;;;;;;;-0.75;76.37;98393.15;1732739;83;21004;-76
2022/01/29 07:22:33;;;;;;;5.35;2.90;;;;;;;-0.72;75.82;98380.22;1732492;82;20997;-76
2022/01/29 07:25:00;;;;;;;6.30;3.30;;;;;;;-0.65;76.13;98379.93;1730018;82;21418;-77
2022/01/29 07:27:26;;;;;;;5.83;2.85;;;;;;;-0.58;76.03;98387.01;1732667;83;21779;-77
2022/01/29 07:29:53;;;;;;;6.05;2.70;;;;;;;-0.55;76.31;98384.89;1732756;83;21063;-77
2022/01/29 07:32:19;;;;;;;4.03;2.50;;;;;;;-0.48;75.99;98376.80;1732489;83;20973;-77
2022/01/29 07:34:46;;;;;;;4.75;2.58;;;;;;;-0.43;75.46;98382.56;1732730;83;20981;-77
2022/01/29 07:37:12;;;;;;;5.33;2.70;;;;;;;-0.44;74.02;98384.72;1732622;82;21155;-77
2022/01/29 07:39:39;;;;;;;3.62;2.12;;;;;;;-0.44;73.10;98382.53;1732762;82;20974;-77
2022/01/29 07:42:06;;;;;;;3.50;1.77;;;;;;;-0.52;70.62;98385.37;1732719;82;21438;-77
2022/01/29 07:44:32;;;;;;;3.47;2.00;;;;;;;-0.57;70.57;98384.00;1725501;82;21019;-77
2022/01/29 07:46:59;;;;;;;3.25;2.05;;;;;;;-0.54;71.51;98379.72;1697720;84;21055;-77
2022/01/29 07:49:25;;;;;;;5.10;2.20;;;;;;;-0.53;71.76;98380.62;1697631;84;21043;-77
2022/01/29 07:51:52;;;;;;;3.35;1.90;;;;;;;-0.57;70.27;98378.37;1697529;84;21067;-77
2022/01/29 07:54:18;;;;;;;3.83;2.00;;;;;;;-0.48;71.58;98384.61;1693718;84;21016;-77
2022/01/29 07:56:44;;;;;;;2.70;1.60;;;;;;;-0.46;70.41;98395.51;1692472;85;21008;-77
2022/01/29 07:59:11;;;;;;;5.40;2.22;;;;;;;-0.48;70.18;98399.81;1692276;85;21453;-77
2022/01/29 08:01:37;;;;;;;3.25;1.80;;;;;;;-0.54;68.59;98391.88;1692442;85;21087;-78
2022/01/29 08:04:04;;;;;;;4.47;2.20;;;;;;;-0.53;68.83;98393.64;1692300;85;20981;-78
2022/01/29 08:06:31;;;;;;;3.27;1.90;;;;;;;-0.47;69.63;98396.77;1692281;85;21004;-78
2022/01/29 08:08:57;;;;;;;18.00;8.15;;;;;;;-0.52;68.25;98386.69;1692350;85;21067;-77
2022/01/29 08:11:25;;;;;;;7.40;2.80;;;;;;;-0.46;69.56;98399.41;1692310;85;21052;-78
2022/01/29 08:13:52;;;;;;;3.30;2.02;;;;;;;-0.55;67.87;98394.01;1692293;85;21016;-77
2022/01/29 08:16:19;;;;;;;3.85;2.42;;;;;;;-0.60;67.80;98393.03;1706488;83;21000;-76
2022/01/29 08:18:46;;;;;;;3.00;1.85;;;;;;;-0.57;68.49;98379.68;1727020;82;21001;-77
2022/01/29 08:21:15;;;;;;;2.40;1.50;;;;;;;-0.50;68.73;98397.58;1727382;83;21451;-77
2022/01/29 08:23:42;;;;;;;3.20;2.40;;;;;;;-0.58;68.00;98393.96;1725282;83;21390;-77
2022/01/29 08:26:10;;;;;;;3.62;2.02;;;;;;;-0.55;68.58;98401.81;1727161;82;21143;-77
2022/01/29 08:28:37;;;;;;;3.65;2.10;;;;;;;-0.61;67.71;98414.71;1727195;82;20964;-77
2022/01/29 08:31:04;;;;;;;3.65;1.80;;;;;;;-0.62;68.63;98424.23;1724796;83;20985;-77
2022/01/29 08:33:30;;;;;;;5.08;2.17;;;;;;;-0.68;68.71;98421.50;1727346;83;21020;-77
2022/01/29 08:35:58;;;;;;;3.37;2.02;;;;;;;-0.69;68.63;98416.73;1727127;83;21036;-76
2022/01/29 08:38:26;;;;;;;3.05;1.82;;;;;;;-0.72;68.04;98414.05;1727254;83;20973;-76
2022/01/29 08:40:54;;;;;;;3.67;2.17;;;;;;;-0.76;68.44;98431.73;1727208;82;21596;-75
2022/01/29 08:43:23;;;;;;;3.55;1.77;;;;;;;-0.75;68.42;98423.08;1727402;83;21036;-75
2022/01/29 08:45:51;;;;;;;4.37;2.12;;;;;;;-0.72;68.58;98428.78;1640140;86;20989;-76
2022/01/29 08:48:19;;;;;;;4.53;2.35;;;;;;;-0.72;67.98;98431.37;1696719;84;21057;-76
2022/01/29 08:50:46;;;;;;;3.58;1.90;;;;;;;-0.71;68.57;98439.23;1711448;83;20996;-76
2022/01/29 08:53:15;;;;;;;3.27;1.70;;;;;;;-0.74;67.61;98441.78;1726076;83;21148;-76
2022/01/29 08:55:42;;;;;;;4.58;2.10;;;;;;;-0.76;66.91;98455.17;1719404;82;21402;-76
2022/01/29 08:58:09;;;;;;;3.55;1.87;;;;;;;-0.60;67.74;98447.30;1719515;82;21005;-76
2022/01/29 09:00:39;;;;;;;5.53;1.85;;;;;;;-0.51;67.34;98462.67;1684911;85;21425;-76
2022/01/29 09:03:06;;;;;;;4.45;2.10;;;;;;;-0.41;66.55;98450.31;1684902;85;21394;-77
2022/01/29 09:05:34;;;;;;;3.60;2.22;;;;;;;-0.24;66.48;98445.87;1684833;85;21406;-77
2022/01/29 09:08:03;;;;;;;4.03;2.15;;;;;;;-0.10;65.91;98456.57;1685034;85;21019;-77
2022/01/29 09:10:31;;;;;;;4.03;2.42;;;;;;;-0.06;64.93;98453.19;1684877;85;21007;-78
2022/01/29 09:12:58;;;;;;;3.10;1.87;;;;;;;-0.05;64.55;98459.73;1684886;85;21024;-78
2022/01/29 09:15:25;;;;;;;4.83;2.30;;;;;;;0.00;64.76;98453.33;1684966;85;20993;-76
2022/01/29 09:17:51;;;;;;;2.85;1.75;;;;;;;0.03;63.71;98458.59;1684922;85;21024;-76
2022/01/29 09:20:18;;;;;;;7.33;3.17;;;;;;;0.01;62.95;98475.04;1684968;85;21473;-76
2022/01/29 09:22:44;;;;;;;4.83;2.10;;;;;;;-0.04;63.82;98450.20;1684776;85;21407;-75
2022/01/29 09:25:11;;;;;;;4.17;2.02;;;;;;;-0.01;63.43;98460.67;1684990;85;21084;-75
2022/01/29 09:27:38;;;;;;;3.72;2.17;;;;;;;0.04;63.71;98451.22;1684698;85;21036;-76
2022/01/29 09:30:06;;;;;;;3.98;2.22;;;;;;;0.01;62.70;98454.19;1719471;83;21387;-76
2022/01/29 09:32:33;;;;;;;5.03;2.72;;;;;;;0.01;62.85;98461.60;1694579;82;21052;-75
2022/01/29 09:35:00;;;;;;;5.47;2.52;;;;;;;0.06;61.89;98451.25;1655925;86;21008;-76
2022/01/29 09:37:26;;;;;;;4.95;2.50;;;;;;;0.12;61.66;98457.88;1655842;87;21036;-76
2022/01/29 09:39:54;;;;;;;4.90;2.22;;;;;;;0.22;61.94;98453.33;1655854;87;21480;-76
2022/01/29 09:42:20;;;;;;;5.12;1.95;;;;;;;0.34;61.55;98445.28;1689414;85;21477;-76
2022/01/29 09:44:48;;;;;;;3.50;1.70;;;;;;;0.37;60.89;98440.10;1655942;85;21557;-76
2022/01/29 09:47:17;;;;;;;3.72;1.92;;;;;;;0.44;62.64;98445.02;1653246;85;21065;-75
2022/01/29 09:49:44;;;;;;;4.55;1.92;;;;;;;0.47;59.40;98446.38;1684883;85;21000;-76
2022/01/29 09:52:11;;;;;;;5.22;2.00;;;;;;;0.31;58.25;98456.53;1684745;85;21020;-76
2022/01/29 09:54:38;;;;;;;6.42;2.30;;;;;;;0.42;59.89;98441.09;1689165;83;21501;-76
2022/01/29 09:57:05;;;;;;;7.22;2.10;;;;;;;0.52;58.84;98440.83;1692108;85;21044;-77
2022/01/29 09:59:31;;;;;;;3.80;2.20;;;;;;;0.70;60.39;98441.56;1692310;85;21024;-76
2022/01/29 10:01:57;;;;;;;4.35;2.40;;;;;;;0.87;57.94;98447.07;1692246;85;21007;-76
2022/01/29 10:04:25;;;;;;;5.15;2.22;;;;;;;1.04;59.44;98443.88;1692463;85;21036;-76
2022/01/29 10:07:18;;;;;;;4.70;2.37;;;;;;;1.04;56.80;98444.73;1692212;85;20984;-77
2022/01/29 10:09:45;;;;;;;4.87;2.00;;;;;;;1.04;56.46;98449.09;1692305;85;21481;-77
2022/01/29 10:12:24;;;;;;;6.53;3.08;;;;;;;1.12;56.15;98443.55;1692314;85;22171;-77
2022/01/29 10:15:06;;;;;;;8.65;2.62;;;;;;;1.13;56.78;98447.05;1691739;85;21028;-76
2022/01/29 10:17:54;;;;;;;3.40;2.22;;;;;;;1.12;56.28;98446.16;1692477;85;21472;-77
2022/01/29 10:20:29;;;;;;;7.75;2.47;;;;;;;1.20;55.85;98445.42;1692358;85;21481;-76
2022/01/29 10:23:03;;;;;;;8.00;2.92;;;;;;;1.16;55.66;98440.14;1692502;85;20985;-76
2022/01/29 10:25:34;;;;;;;15.38;4.87;;;;;;;1.27;56.96;98423.75;1692652;85;21374;-76
2022/01/29 10:28:11;;;;;;;5.97;3.02;;;;;;;1.29;56.01;98425.98;1692370;85;21020;-76
2022/01/29 10:31:00;;;;;;;7.47;2.83;;;;;;;1.37;56.45;98430.00;1692450;85;21015;-76
2022/01/29 10:33:40;;;;;;;7.58;3.00;;;;;;;1.44;56.75;98431.42;1692304;85;21027;-76
2022/01/29 10:36:12;;;;;;;7.15;2.85;;;;;;;1.53;55.53;98435.88;1706536;83;21072;-76
2022/01/29 10:38:50;;;;;;;8.33;3.42;;;;;;;1.51;54.45;98447.16;1727441;82;21052;-76
2022/01/29 10:41:31;;;;;;;4.83;2.00;;;;;;;1.62;55.17;98439.03;1727229;82;21021;-76
2022/01/29 10:44:22;;;;;;;6.80;2.80;;;;;;;1.31;54.38;98449.95;1726562;82;21080;-77
2022/01/29 10:46:54;;;;;;;5.72;2.25;;;;;;;1.21;54.78;98433.70;1697644;84;21005;-77
2022/01/29 10:49:29;;;;;;;8.80;2.35;;;;;;;1.16;55.11;98436.22;1698333;84;21000;-77
2022/01/29 10:52:05;;;;;;;;;;;;;;;1.13;55.08;98420.95;1700824;84;21009;-76
2022/01/29 10:54:44;;;;;;;8.58;3.40;;;;;;;1.10;54.72;98429.61;1700459;84;20113;-76
2022/01/29 10:57:15;;;;;;;6.53;2.15;;;;;;;1.08;55.14;98440.44;1703508;84;21068;-77
2022/01/29 10:59:51;;;;;;;4.40;2.58;;;;;;;1.44;54.47;98449.70;1703448;84;21023;-76
2022/01/29 11:02:20;;;;;;;5.87;2.85;;;;;;;2.57;53.58;98423.13;1714843;83;21445;-76
2022/01/29 11:04:49;;;;;;;6.42;3.10;;;;;;;3.66;50.40;98417.36;1702165;84;21496;-76
2022/01/29 11:07:24;;;;;;;15.25;6.47;;;;;;;4.61;49.19;98411.56;1698070;84;21039;-75
2022/01/29 11:09:52;;;;;;;8.50;3.30;;;;;;;5.04;44.60;98412.44;1696220;84;21019;-75
2022/01/29 11:12:27;;;;;;;7.97;3.67;;;;;;;5.24;43.04;98401.92;1696929;84;21063;-76
2022/01/29 11:15:00;;;;;;;8.88;4.08;;;;;;;6.22;44.97;98398.12;1697170;84;21004;-76
2022/01/29 11:17:29;;;;;;;5.03;2.98;;;;;;;5.69;43.58;98401.79;1693098;84;21072;-75
2022/01/29 11:19:56;;;;;;;6.10;3.72;;;;;;;5.38;45.53;98402.77;1669162;85;20991;-75
2022/01/29 11:22:35;;;;;;;6.30;3.60;;;;;;;5.34;43.72;98403.65;1676352;85;21104;-76
2022/01/29 11:25:06;;;;;;;4.85;2.70;;;;;;;4.86;46.21;98417.69;1677777;85;21032;-75
2022/01/29 11:27:39;;;;;;;3.27;2.10;;;;;;;3.94;47.41;98416.19;1644224;87;21048;-75
2022/01/29 11:30:12;;;;;;;4.92;2.42;;;;;;;3.51;47.77;98418.17;1682333;85;20994;-75
2022/01/29 11:32:55;;;;;;;5.17;2.67;;;;;;;3.35;48.28;98428.98;1677947;85;21070;-73
2022/01/29 11:35:29;;;;;;;7.10;3.15;;;;;;;2.92;47.98;98421.70;1683305;85;20953;-74
2022/01/29 11:38:08;;;;;;;7.60;2.75;;;;;;;3.51;46.77;98418.17;1687362;85;21077;-74
2022/01/29 11:40:44;;;;;;;6.60;3.45;;;;;;;4.51;47.49;98418.53;1687448;85;20982;-74
2022/01/29 11:43:21;;;;;;;6.05;2.77;;;;;;;6.16;42.92;98410.43;1687338;85;21054;-75
2022/01/29 11:46:10;;;;;;;8.85;2.67;;;;;;;6.84;41.87;98403.84;1669693;85;21100;-75
2022/01/29 11:48:49;;;;;;;15.45;4.40;;;;;;;7.93;40.97;98400.12;1674686;86;21100;-76
2022/01/29 11:51:10;;;;;;;4.60;2.70;;;;;;;8.24;39.36;98392.69;1673390;86;21064;-76
2022/01/29 11:53:51;;;;;;;4.67;2.20;;;;;;;8.83;36.99;98390.53;1675064;86;20989;-75
2022/01/29 11:56:40;;;;;;;4.47;2.27;;;;;;;9.45;35.37;98374.92;1675201;86;21548;-74
2022/01/29 11:59:27;;;;;;;5.25;2.22;;;;;;;8.43;34.08;98376.16;1675046;85;22186;-74